createdAt,value
2023-05-19T00:00:09.345Z,11.74
2023-05-19T00:01:09.327Z,11.75
2023-05-19T00:02:09.589Z,11.75
2023-05-19T00:03:09.610Z,11.75
2023-05-19T00:04:09.293Z,11.77
2023-05-19T00:05:09.294Z,11.77
2023-05-19T00:06:09.370Z,11.77
2023-05-19T00:07:09.246Z,11.78
2023-05-19T00:08:09.265Z,11.78
2023-05-19T00:09:09.242Z,11.78
2023-05-19T00:10:09.365Z,11.75
2023-05-19T00:11:09.236Z,11.71
2023-05-19T00:12:09.231Z,11.68
2023-05-19T00:13:09.209Z,11.65
2023-05-19T00:14:09.204Z,11.62
2023-05-19T00:15:09.269Z,11.59
2023-05-19T00:16:09.244Z,11.59
2023-05-19T00:17:09.229Z,11.57
2023-05-19T00:18:09.249Z,11.56
2023-05-19T00:19:09.154Z,11.54
2023-05-19T00:20:09.188Z,11.56
2023-05-19T00:21:09.195Z,11.56
2023-05-19T00:22:09.120Z,11.54
2023-05-19T00:23:09.113Z,11.52
2023-05-19T00:24:09.119Z,11.50
2023-05-19T00:25:09.113Z,11.50
2023-05-19T00:26:09.109Z,11.50
2023-05-19T00:27:09.094Z,11.47
2023-05-19T00:28:09.046Z,11.44
2023-05-19T00:29:09.070Z,11.41
2023-05-19T00:30:09.046Z,11.34
2023-05-19T00:31:09.150Z,11.29
2023-05-19T00:32:09.206Z,11.27
2023-05-19T00:33:09.080Z,11.24
2023-05-19T00:34:09.015Z,11.17
2023-05-19T00:35:08.990Z,11.17
2023-05-19T00:36:09.038Z,11.13
2023-05-19T00:37:08.969Z,11.11
2023-05-19T00:38:08.948Z,11.10
2023-05-19T00:39:08.932Z,11.14
2023-05-19T00:40:08.970Z,11.14
2023-05-19T00:41:08.927Z,11.13
2023-05-19T00:42:08.922Z,11.10
2023-05-19T00:43:08.902Z,11.07
2023-05-19T00:44:08.865Z,11.06
2023-05-19T00:45:08.992Z,11.02
2023-05-19T00:46:08.922Z,10.99
2023-05-19T00:47:08.957Z,10.98
2023-05-19T00:48:08.860Z,10.95
2023-05-19T00:49:08.816Z,10.92
2023-05-19T00:50:08.822Z,10.88
2023-05-19T00:51:08.802Z,10.86
2023-05-19T00:52:08.844Z,10.83
2023-05-19T00:53:08.789Z,10.83
2023-05-19T00:54:08.860Z,10.84
2023-05-19T00:55:08.854Z,10.83
2023-05-19T00:56:08.826Z,10.84
2023-05-19T00:57:08.774Z,10.86
2023-05-19T00:58:08.734Z,10.83
2023-05-19T00:59:08.764Z,10.81
2023-05-19T01:00:08.739Z,10.77
2023-05-19T01:01:08.770Z,10.78
2023-05-19T01:02:08.683Z,10.78
2023-05-19T01:03:08.736Z,10.77
2023-05-19T01:04:08.785Z,10.77
2023-05-19T01:05:08.695Z,10.73
2023-05-19T01:06:08.680Z,10.73
2023-05-19T01:07:08.674Z,10.74
2023-05-19T01:08:08.700Z,10.71
2023-05-19T01:09:08.671Z,10.71
2023-05-19T01:10:08.694Z,10.68
2023-05-19T01:11:08.618Z,10.68
2023-05-19T01:12:08.659Z,10.66
2023-05-19T01:13:08.573Z,10.66
2023-05-19T01:14:08.591Z,10.66
2023-05-19T01:15:08.556Z,10.66
2023-05-19T01:16:08.579Z,10.65
2023-05-19T01:17:08.550Z,10.63
2023-05-19T01:18:08.593Z,10.62
2023-05-19T01:19:08.544Z,10.63
2023-05-19T01:20:08.525Z,10.66
2023-05-19T01:21:08.510Z,10.68
2023-05-19T01:22:08.540Z,10.63
2023-05-19T01:23:08.487Z,10.63
2023-05-19T01:24:08.476Z,10.60
2023-05-19T01:25:08.460Z,10.59
2023-05-19T01:26:08.456Z,10.59
2023-05-19T01:27:08.430Z,10.56
2023-05-19T01:28:08.426Z,10.51
2023-05-19T01:29:08.425Z,10.46
2023-05-19T01:30:08.541Z,10.51
2023-05-19T01:31:08.418Z,10.46
2023-05-19T01:32:08.560Z,10.46
2023-05-19T01:33:08.417Z,10.46
2023-05-19T01:34:08.376Z,10.46
2023-05-19T01:35:08.349Z,10.44
2023-05-19T01:36:08.480Z,10.46
2023-05-19T01:37:08.373Z,10.46
2023-05-19T01:38:08.339Z,10.46
2023-05-19T01:39:08.376Z,10.44
2023-05-19T01:40:08.339Z,10.44
2023-05-19T01:41:08.375Z,10.44
2023-05-19T01:42:08.324Z,10.46
2023-05-19T01:43:08.277Z,10.47
2023-05-19T01:44:08.274Z,10.44
2023-05-19T01:45:08.301Z,10.43
2023-05-19T01:46:08.297Z,10.40
2023-05-19T01:47:08.226Z,10.37
2023-05-19T01:48:10.850Z,10.36
2023-05-19T01:49:08.229Z,10.33
2023-05-19T01:50:08.210Z,10.36
2023-05-19T01:51:08.207Z,10.32
2023-05-19T01:52:08.205Z,10.34
2023-05-19T01:53:08.195Z,10.30
2023-05-19T01:54:08.153Z,10.33
2023-05-19T01:55:08.178Z,10.34
2023-05-19T01:56:08.143Z,10.33
2023-05-19T01:57:08.153Z,10.34
2023-05-19T01:58:08.118Z,10.36
2023-05-19T01:59:08.133Z,10.36
2023-05-19T02:00:08.153Z,10.33
2023-05-19T02:01:08.165Z,10.33
2023-05-19T02:02:08.134Z,10.32
2023-05-19T02:03:08.236Z,10.34
2023-05-19T02:04:08.079Z,10.36
2023-05-19T02:05:08.033Z,10.37
2023-05-19T02:06:08.076Z,10.37
2023-05-19T02:07:08.034Z,10.39
2023-05-19T02:08:08.041Z,10.39
2023-05-19T02:09:08.063Z,10.39
2023-05-19T02:10:08.028Z,10.39
2023-05-19T02:11:08.045Z,10.43
2023-05-19T02:12:08.012Z,10.46
2023-05-19T02:13:07.975Z,10.51
2023-05-19T02:14:07.950Z,10.52
2023-05-19T02:15:07.985Z,10.51
2023-05-19T02:16:07.958Z,10.46
2023-05-19T02:17:07.920Z,10.44
2023-05-19T02:18:08.056Z,10.43
2023-05-19T02:19:07.918Z,10.40
2023-05-19T02:20:07.895Z,10.40
2023-05-19T02:21:07.891Z,10.42
2023-05-19T02:22:07.949Z,10.43
2023-05-19T02:23:07.892Z,10.40
2023-05-19T02:24:08.007Z,10.40
2023-05-19T02:25:07.870Z,10.37
2023-05-19T02:26:07.854Z,10.37
2023-05-19T02:27:07.848Z,10.36
2023-05-19T02:28:07.887Z,10.37
2023-05-19T02:29:07.806Z,10.39
2023-05-19T02:30:07.836Z,10.42
2023-05-19T02:31:07.776Z,10.42
2023-05-19T02:32:07.868Z,10.44
2023-05-19T02:33:07.828Z,10.51
2023-05-19T02:34:07.746Z,10.51
2023-05-19T02:35:07.785Z,10.51
2023-05-19T02:36:07.744Z,10.52
2023-05-19T02:37:07.840Z,10.53
2023-05-19T02:38:07.760Z,10.53
2023-05-19T02:39:07.714Z,10.53
2023-05-19T02:40:07.782Z,10.53
2023-05-19T02:41:07.684Z,10.58
2023-05-19T02:42:07.665Z,10.56
2023-05-19T02:43:07.703Z,10.58
2023-05-19T02:44:07.697Z,10.59
2023-05-19T02:45:07.646Z,10.60
2023-05-19T02:46:07.756Z,10.56
2023-05-19T02:47:07.645Z,10.53
2023-05-19T02:48:07.681Z,10.52
2023-05-19T02:49:07.626Z,10.47
2023-05-19T02:50:07.581Z,10.46
2023-05-19T02:51:07.629Z,10.43
2023-05-19T02:52:07.619Z,10.39
2023-05-19T02:53:07.603Z,10.36
2023-05-19T02:54:07.538Z,10.36
2023-05-19T02:55:07.573Z,10.33
2023-05-19T02:56:07.532Z,10.34
2023-05-19T02:57:07.576Z,10.33
2023-05-19T02:58:07.537Z,10.32
2023-05-19T02:59:07.546Z,10.30
2023-05-19T03:00:07.510Z,10.32
2023-05-19T03:01:07.510Z,10.34
2023-05-19T03:02:07.636Z,10.39
2023-05-19T03:03:07.530Z,10.39
2023-05-19T03:04:07.603Z,10.40
2023-05-19T03:05:07.445Z,10.40
2023-05-19T03:06:07.455Z,10.37
2023-05-19T03:07:07.399Z,10.36
2023-05-19T03:08:07.360Z,10.36
2023-05-19T03:09:07.379Z,10.33
2023-05-19T03:10:07.339Z,10.32
2023-05-19T03:11:07.320Z,10.30
2023-05-19T03:12:07.345Z,10.30
2023-05-19T03:13:07.407Z,10.30
2023-05-19T03:14:07.340Z,10.30
2023-05-19T03:15:07.261Z,10.30
2023-05-19T03:16:07.382Z,10.26
2023-05-19T03:17:07.265Z,10.26
2023-05-19T03:18:07.295Z,10.26
2023-05-19T03:19:07.310Z,10.26
2023-05-19T03:20:07.214Z,10.30
2023-05-19T03:21:07.217Z,10.30
2023-05-19T03:22:07.190Z,10.30
2023-05-19T03:23:07.213Z,10.34
2023-05-19T03:24:07.252Z,10.34
2023-05-19T03:25:07.187Z,10.34
2023-05-19T03:26:07.161Z,10.36
2023-05-19T03:27:07.203Z,10.33
2023-05-19T03:28:07.224Z,10.30
2023-05-19T03:29:07.230Z,10.30
2023-05-19T03:30:07.160Z,10.28
2023-05-19T03:31:07.129Z,10.30
2023-05-19T03:32:07.178Z,10.32
2023-05-19T03:33:07.220Z,10.30
2023-05-19T03:34:07.122Z,10.30
2023-05-19T03:35:07.078Z,10.28
2023-05-19T03:36:07.057Z,10.25
2023-05-19T03:37:07.065Z,10.24
2023-05-19T03:38:07.073Z,10.21
2023-05-19T03:39:07.043Z,10.24
2023-05-19T03:40:07.023Z,10.26
2023-05-19T03:41:07.058Z,10.32
2023-05-19T03:42:07.022Z,10.33
2023-05-19T03:43:07.081Z,10.33
2023-05-19T03:44:06.991Z,10.36
2023-05-19T03:45:06.985Z,10.39
2023-05-19T03:46:07.084Z,10.39
2023-05-19T03:47:07.000Z,10.37
2023-05-19T03:48:06.985Z,10.37
2023-05-19T03:49:06.942Z,10.39
2023-05-19T03:50:06.953Z,10.37
2023-05-19T03:51:06.958Z,10.39
2023-05-19T03:52:06.949Z,10.36
2023-05-19T03:53:06.951Z,10.34
2023-05-19T03:54:06.950Z,10.33
2023-05-19T03:55:06.956Z,10.26
2023-05-19T03:56:06.972Z,10.24
2023-05-19T03:57:06.921Z,10.21
2023-05-19T03:58:06.912Z,10.22
2023-05-19T03:59:06.879Z,10.22
2023-05-19T04:00:06.866Z,10.24
2023-05-19T04:01:06.816Z,10.22
2023-05-19T04:02:08.215Z,10.19
2023-05-19T04:03:06.892Z,10.21
2023-05-19T04:04:06.954Z,10.24
2023-05-19T04:05:06.834Z,10.25
2023-05-19T04:06:06.750Z,10.26
2023-05-19T04:07:06.745Z,10.32
2023-05-19T04:08:06.741Z,10.28
2023-05-19T04:09:06.774Z,10.28
2023-05-19T04:10:06.716Z,10.28
2023-05-19T04:11:06.788Z,10.32
2023-05-19T04:12:06.792Z,10.33
2023-05-19T04:13:06.691Z,10.32
2023-05-19T04:14:06.689Z,10.33
2023-05-19T04:15:06.705Z,10.33
2023-05-19T04:16:06.737Z,10.36
2023-05-19T04:17:06.694Z,10.39
2023-05-19T04:18:06.767Z,10.37
2023-05-19T04:19:06.726Z,10.39
2023-05-19T04:20:06.672Z,10.43
2023-05-19T04:21:06.611Z,10.37
2023-05-19T04:22:06.584Z,10.37
2023-05-19T04:23:06.603Z,10.37
2023-05-19T04:24:06.770Z,10.40
2023-05-19T04:25:06.594Z,10.40
2023-05-19T04:26:06.554Z,10.37
2023-05-19T04:27:06.565Z,10.37
2023-05-19T04:28:06.574Z,10.40
2023-05-19T04:29:06.561Z,10.40
2023-05-19T04:30:06.548Z,10.42
2023-05-19T04:31:06.583Z,10.40
2023-05-19T04:32:06.519Z,10.42
2023-05-19T04:33:06.556Z,10.47
2023-05-19T04:34:06.579Z,10.53
2023-05-19T04:35:06.583Z,10.59
2023-05-19T04:36:06.525Z,10.60
2023-05-19T04:37:06.486Z,10.65
2023-05-19T04:38:06.490Z,10.71
2023-05-19T04:39:06.449Z,10.76
2023-05-19T04:40:06.444Z,10.74
2023-05-19T04:41:06.460Z,10.71
2023-05-19T04:42:06.447Z,10.71
2023-05-19T04:43:06.471Z,10.73
2023-05-19T04:44:06.404Z,10.78
2023-05-19T04:45:06.441Z,10.83
2023-05-19T04:46:06.454Z,10.98
2023-05-19T04:47:06.627Z,11.10
2023-05-19T04:48:06.462Z,11.27
2023-05-19T04:49:06.371Z,11.36
2023-05-19T04:50:06.326Z,11.36
2023-05-19T04:51:06.341Z,11.35
2023-05-19T04:52:06.345Z,11.29
2023-05-19T04:53:06.278Z,11.36
2023-05-19T04:54:06.342Z,11.65
2023-05-19T04:55:06.269Z,11.82
2023-05-19T04:56:06.260Z,11.90
2023-05-19T04:57:06.254Z,11.99
2023-05-19T04:58:06.218Z,12.09
2023-05-19T04:59:06.288Z,12.09
2023-05-19T05:00:06.228Z,12.15
2023-05-19T05:01:06.230Z,12.30
2023-05-19T05:02:06.290Z,12.34
2023-05-19T05:03:06.253Z,12.59
2023-05-19T05:04:06.353Z,12.52
2023-05-19T05:05:06.162Z,12.59
2023-05-19T05:06:06.144Z,12.99
2023-05-19T05:07:06.145Z,13.22
2023-05-19T05:08:06.136Z,13.33
2023-05-19T05:09:06.150Z,13.44
2023-05-19T05:10:06.091Z,13.44
2023-05-19T05:11:06.069Z,13.21
2023-05-19T05:12:06.065Z,12.82
2023-05-19T05:13:06.098Z,12.78
2023-05-19T05:14:06.078Z,12.93
2023-05-19T05:15:06.041Z,13.25
2023-05-19T05:16:06.086Z,13.41
2023-05-19T05:17:06.033Z,13.33
2023-05-19T05:18:06.125Z,13.55
2023-05-19T05:19:06.089Z,13.63
2023-05-19T05:20:06.023Z,13.54
2023-05-19T05:21:05.983Z,13.47
2023-05-19T05:22:05.981Z,13.30
2023-05-19T05:23:06.008Z,13.33
2023-05-19T05:24:05.952Z,13.89
2023-05-19T05:25:05.948Z,14.37
2023-05-19T05:26:05.936Z,14.39
2023-05-19T05:27:05.940Z,14.29
2023-05-19T05:28:05.928Z,14.60
2023-05-19T05:29:05.919Z,14.69
2023-05-19T05:30:05.919Z,14.47
2023-05-19T05:31:05.881Z,14.29
2023-05-19T05:32:05.921Z,14.44
2023-05-19T05:33:05.902Z,14.64
2023-05-19T05:34:05.834Z,14.93
2023-05-19T05:35:05.844Z,15.24
2023-05-19T05:36:05.843Z,15.60
2023-05-19T05:37:05.810Z,15.92
2023-05-19T05:38:05.828Z,16.15
2023-05-19T05:39:05.844Z,15.94
2023-05-19T05:40:05.842Z,15.26
2023-05-19T05:41:05.831Z,14.98
2023-05-19T05:42:05.815Z,14.31
2023-05-19T05:43:05.802Z,13.83
2023-05-19T05:44:05.781Z,13.56
2023-05-19T05:45:05.736Z,13.30
2023-05-19T05:46:05.819Z,13.00
2023-05-19T05:47:06.409Z,13.36
2023-05-19T05:48:05.781Z,13.18
2023-05-19T05:49:05.724Z,14.21
2023-05-19T05:50:05.719Z,15.17
2023-05-19T05:51:05.682Z,15.88
2023-05-19T05:52:06.810Z,16.74
2023-05-19T05:53:05.674Z,16.86
2023-05-19T05:54:05.638Z,16.14
2023-05-19T05:55:05.642Z,16.23
2023-05-19T05:56:05.686Z,16.45
2023-05-19T05:57:05.634Z,16.44
2023-05-19T05:58:05.621Z,16.78
2023-05-19T05:59:05.629Z,17.07
2023-05-19T06:00:05.573Z,16.81
2023-05-19T06:01:05.590Z,16.89
2023-05-19T06:02:05.641Z,17.13
2023-05-19T06:03:05.709Z,17.51
2023-05-19T06:04:05.645Z,17.20
2023-05-19T06:05:05.584Z,17.46
2023-05-19T06:06:05.665Z,17.70
2023-05-19T06:07:05.529Z,17.81
2023-05-19T06:08:05.508Z,18.09
2023-05-19T06:09:05.521Z,18.40
2023-05-19T06:10:05.538Z,18.61
2023-05-19T06:11:05.570Z,18.44
2023-05-19T06:12:05.475Z,18.52
2023-05-19T06:13:05.448Z,18.55
2023-05-19T06:14:05.504Z,18.31
2023-05-19T06:15:05.562Z,18.72
2023-05-19T06:16:05.513Z,19.24
2023-05-19T06:17:05.502Z,19.17
2023-05-19T06:18:05.556Z,18.55
2023-05-19T06:19:05.518Z,18.46
2023-05-19T06:20:05.473Z,18.79
2023-05-19T06:21:05.374Z,19.10
2023-05-19T06:22:05.380Z,18.59
2023-05-19T06:23:05.333Z,18.73
2023-05-19T06:24:05.385Z,19.08
2023-05-19T06:25:05.367Z,18.57
2023-05-19T06:26:05.346Z,18.58
2023-05-19T06:27:05.309Z,18.07
2023-05-19T06:28:05.292Z,18.21
2023-05-19T06:29:05.299Z,18.47
2023-05-19T06:30:05.272Z,18.43
2023-05-19T06:31:05.307Z,18.47
2023-05-19T06:32:05.281Z,18.47
2023-05-19T06:33:05.313Z,18.86
2023-05-19T06:34:05.277Z,18.98
2023-05-19T06:35:05.253Z,19.20
2023-05-19T06:36:05.207Z,19.25
2023-05-19T06:37:05.207Z,19.06
2023-05-19T06:38:05.187Z,18.19
2023-05-19T06:39:05.187Z,17.55
2023-05-19T06:40:05.171Z,17.04
2023-05-19T06:41:05.159Z,16.78
2023-05-19T06:42:05.135Z,16.80
2023-05-19T06:43:05.142Z,16.44
2023-05-19T06:44:05.159Z,16.07
2023-05-19T06:45:05.107Z,16.20
2023-05-19T06:46:05.112Z,16.40
2023-05-19T06:47:05.194Z,16.30
2023-05-19T06:48:05.253Z,16.15
2023-05-19T06:49:05.068Z,16.67
2023-05-19T06:50:05.068Z,16.75
2023-05-19T06:51:05.066Z,16.90
2023-05-19T06:52:05.083Z,17.23
2023-05-19T06:53:05.032Z,17.54
2023-05-19T06:54:05.025Z,17.73
2023-05-19T06:55:05.051Z,17.95
2023-05-19T06:56:05.004Z,18.34
2023-05-19T06:57:05.002Z,18.94
2023-05-19T06:58:04.970Z,19.40
2023-05-19T06:59:04.964Z,19.39
2023-05-19T07:00:05.015Z,19.68
2023-05-19T07:01:04.940Z,20.24
2023-05-19T07:02:04.993Z,19.98
2023-05-19T07:03:04.993Z,20.47
2023-05-19T07:04:04.973Z,20.76
2023-05-19T07:05:04.901Z,20.81
2023-05-19T07:06:07.756Z,20.06
2023-05-19T07:07:04.880Z,19.06
2023-05-19T07:08:04.879Z,19.13
2023-05-19T07:09:04.876Z,19.15
2023-05-19T07:10:04.877Z,17.85
2023-05-19T07:11:04.852Z,17.79
2023-05-19T07:12:04.861Z,17.69
2023-05-19T07:13:04.837Z,17.70
2023-05-19T07:14:04.820Z,17.59
2023-05-19T07:15:04.824Z,17.55
2023-05-19T07:16:04.830Z,17.40
2023-05-19T07:17:04.776Z,17.03
2023-05-19T07:18:04.840Z,16.85
2023-05-19T07:19:04.940Z,16.56
2023-05-19T07:20:04.755Z,16.22
2023-05-19T07:21:04.755Z,15.59
2023-05-19T07:22:04.743Z,15.21
2023-05-19T07:23:04.718Z,15.17
2023-05-19T07:24:04.745Z,15.17
2023-05-19T07:25:04.727Z,15.13
2023-05-19T07:26:04.677Z,14.84
2023-05-19T07:27:04.806Z,14.61
2023-05-19T07:28:04.678Z,14.52
2023-05-19T07:29:04.690Z,14.38
2023-05-19T07:30:04.689Z,14.35
2023-05-19T07:31:04.645Z,14.39
2023-05-19T07:32:04.681Z,14.43
2023-05-19T07:33:04.668Z,14.47
2023-05-19T07:34:04.616Z,14.61
2023-05-19T07:35:04.638Z,14.62
2023-05-19T07:36:04.635Z,14.71
2023-05-19T07:37:04.595Z,14.80
2023-05-19T07:38:04.649Z,14.65
2023-05-19T07:39:04.754Z,14.62
2023-05-19T07:40:04.537Z,14.68
2023-05-19T07:41:04.554Z,14.62
2023-05-19T07:42:04.529Z,14.54
2023-05-19T07:43:04.562Z,14.44
2023-05-19T07:44:04.502Z,14.37
2023-05-19T07:45:04.471Z,14.37
2023-05-19T07:46:04.529Z,14.24
2023-05-19T07:47:04.457Z,14.28
2023-05-19T07:48:04.536Z,14.24
2023-05-19T07:49:04.472Z,14.24
2023-05-19T07:50:04.580Z,14.09
2023-05-19T07:51:04.457Z,13.96
2023-05-19T07:52:04.486Z,13.96
2023-05-19T07:53:04.434Z,13.91
2023-05-19T07:54:04.414Z,13.91
2023-05-19T07:55:04.431Z,13.88
2023-05-19T07:56:04.374Z,14.01
2023-05-19T07:57:04.375Z,14.04
2023-05-19T07:58:04.362Z,14.21
2023-05-19T07:59:04.428Z,14.43
2023-05-19T08:00:04.328Z,14.52
2023-05-19T08:01:04.318Z,14.71
2023-05-19T08:02:04.348Z,14.67
2023-05-19T08:03:04.362Z,14.61
2023-05-19T08:04:04.438Z,14.72
2023-05-19T08:05:04.289Z,14.62
2023-05-19T08:06:04.289Z,14.50
2023-05-19T08:07:04.302Z,14.52
2023-05-19T08:08:04.259Z,14.25
2023-05-19T08:09:04.263Z,14.14
2023-05-19T08:10:04.233Z,14.20
2023-05-19T08:11:04.304Z,13.99
2023-05-19T08:12:04.214Z,14.01
2023-05-19T08:13:04.213Z,14.19
2023-05-19T08:14:04.185Z,14.32
2023-05-19T08:15:04.193Z,14.28
2023-05-19T08:16:04.307Z,14.24
2023-05-19T08:17:04.174Z,14.27
2023-05-19T08:18:04.219Z,14.20
2023-05-19T08:19:04.220Z,14.13
2023-05-19T08:20:04.196Z,14.19
2023-05-19T08:21:04.130Z,14.32
2023-05-19T08:22:04.104Z,14.16
2023-05-19T08:23:04.098Z,14.04
2023-05-19T08:24:04.096Z,13.95
2023-05-19T08:25:04.137Z,13.88
2023-05-19T08:26:04.106Z,13.89
2023-05-19T08:27:04.075Z,13.88
2023-05-19T08:28:04.059Z,13.84
2023-05-19T08:29:04.054Z,13.94
2023-05-19T08:30:04.046Z,14.09
2023-05-19T08:31:04.020Z,14.19
2023-05-19T08:32:03.999Z,14.12
2023-05-19T08:33:04.050Z,13.98
2023-05-19T08:34:04.046Z,13.99
2023-05-19T08:35:04.041Z,13.81
2023-05-19T08:36:03.968Z,13.74
2023-05-19T08:37:03.955Z,13.74
2023-05-19T08:38:03.963Z,13.92
2023-05-19T08:39:04.004Z,13.96
2023-05-19T08:40:03.927Z,14.07
2023-05-19T08:41:03.916Z,14.16
2023-05-19T08:42:03.918Z,14.27
2023-05-19T08:43:03.915Z,14.35
2023-05-19T08:44:03.937Z,14.37
2023-05-19T08:45:03.896Z,14.44
2023-05-19T08:46:03.855Z,14.54
2023-05-19T08:47:03.877Z,14.44
2023-05-19T08:48:03.965Z,14.21
2023-05-19T08:49:03.854Z,14.38
2023-05-19T08:50:03.835Z,14.54
2023-05-19T08:51:03.858Z,14.80
2023-05-19T08:52:03.858Z,14.94
2023-05-19T08:53:03.787Z,14.94
2023-05-19T08:54:03.829Z,14.88
2023-05-19T08:55:03.775Z,14.61
2023-05-19T08:56:03.759Z,14.64
2023-05-19T08:57:03.758Z,14.44
2023-05-19T08:58:03.758Z,14.38
2023-05-19T08:59:03.758Z,14.44
2023-05-19T09:00:03.732Z,14.53
2023-05-19T09:01:03.778Z,14.54
2023-05-19T09:02:03.745Z,14.53
2023-05-19T09:03:17.416Z,14.65
2023-05-19T09:04:03.753Z,14.80
2023-05-19T09:05:03.742Z,14.90
2023-05-19T09:06:03.675Z,15.03
2023-05-19T09:07:03.664Z,14.91
2023-05-19T09:08:03.654Z,14.75
2023-05-19T09:09:03.630Z,14.71
2023-05-19T09:10:03.644Z,14.74
2023-05-19T09:11:03.600Z,14.78
2023-05-19T09:12:03.616Z,14.83
2023-05-19T09:13:03.574Z,14.95
2023-05-19T09:14:03.581Z,15.08
2023-05-19T09:15:03.586Z,14.87
2023-05-19T09:16:03.735Z,14.83
2023-05-19T09:17:03.749Z,14.78
2023-05-19T09:18:03.592Z,14.64
2023-05-19T09:19:03.595Z,14.57
2023-05-19T09:20:03.590Z,14.57
2023-05-19T09:21:03.584Z,14.61
2023-05-19T09:22:03.543Z,14.72
2023-05-19T09:23:03.489Z,14.71
2023-05-19T09:24:03.472Z,14.57
2023-05-19T09:25:03.451Z,14.43
2023-05-19T09:26:03.511Z,14.32
2023-05-19T09:27:03.438Z,14.32
2023-05-19T09:28:03.494Z,14.29
2023-05-19T09:29:03.411Z,14.32
2023-05-19T09:30:03.459Z,14.38
2023-05-19T09:31:03.398Z,14.39
2023-05-19T09:32:03.418Z,14.27
2023-05-19T09:33:03.400Z,14.21
2023-05-19T09:34:03.355Z,14.24
2023-05-19T09:35:03.427Z,14.31
2023-05-19T09:36:03.365Z,14.46
2023-05-19T09:37:03.346Z,14.29
2023-05-19T09:38:03.339Z,14.24
2023-05-19T09:39:03.362Z,14.25
2023-05-19T09:40:03.344Z,14.24
2023-05-19T09:41:03.286Z,14.29
2023-05-19T09:42:03.286Z,14.39
2023-05-19T09:43:03.259Z,14.43
2023-05-19T09:44:03.318Z,14.52
2023-05-19T09:45:03.250Z,14.69
2023-05-19T09:46:03.287Z,14.71
2023-05-19T09:47:03.223Z,14.64
2023-05-19T09:48:03.248Z,14.62
2023-05-19T09:49:03.217Z,14.67
2023-05-19T09:50:03.186Z,14.49
2023-05-19T09:51:03.185Z,14.44
2023-05-19T09:52:03.188Z,14.44
2023-05-19T09:53:03.180Z,14.43
2023-05-19T09:54:03.230Z,14.32
2023-05-19T09:55:03.169Z,14.10
2023-05-19T09:56:03.149Z,14.06
2023-05-19T09:57:03.162Z,14.10
2023-05-19T09:58:03.188Z,14.13
2023-05-19T09:59:03.114Z,14.19
2023-05-19T10:00:03.115Z,14.25
2023-05-19T10:01:03.129Z,14.21
2023-05-19T10:02:03.305Z,14.19
2023-05-19T10:03:03.118Z,14.17
2023-05-19T10:04:03.853Z,14.09
2023-05-19T10:05:03.144Z,14.16
2023-05-19T10:06:03.036Z,14.24
2023-05-19T10:07:03.022Z,14.10
2023-05-19T10:08:03.028Z,14.14
2023-05-19T10:09:03.003Z,14.19
2023-05-19T10:10:03.016Z,14.20
2023-05-19T10:11:02.988Z,14.21
2023-05-19T10:12:02.990Z,14.16
2023-05-19T10:13:02.974Z,14.21
2023-05-19T10:14:02.955Z,14.17
2023-05-19T10:15:03.054Z,14.04
2023-05-19T10:16:03.224Z,13.98
2023-05-19T10:17:03.078Z,13.94
2023-05-19T10:18:02.932Z,14.06
2023-05-19T10:19:02.995Z,14.10
2023-05-19T10:20:02.891Z,14.25
2023-05-19T10:21:03.143Z,14.32
2023-05-19T10:22:02.872Z,14.34
2023-05-19T10:23:02.863Z,14.38
2023-05-19T10:24:02.872Z,14.34
2023-05-19T10:25:02.837Z,14.10
2023-05-19T10:26:02.850Z,14.09
2023-05-19T10:27:02.852Z,14.12
2023-05-19T10:28:02.823Z,14.16
2023-05-19T10:29:02.811Z,14.20
2023-05-19T10:30:02.812Z,14.14
2023-05-19T10:31:02.785Z,14.10
2023-05-19T10:32:02.814Z,14.07
2023-05-19T10:33:02.792Z,14.14
2023-05-19T10:34:02.739Z,14.16
2023-05-19T10:35:02.753Z,14.17
2023-05-19T10:36:02.732Z,14.29
2023-05-19T10:37:02.752Z,14.34
2023-05-19T10:38:02.707Z,14.38
2023-05-19T10:39:02.719Z,14.42
2023-05-19T10:40:02.747Z,14.35
2023-05-19T10:41:02.676Z,14.25
2023-05-19T10:42:02.699Z,14.13
2023-05-19T10:43:02.661Z,14.13
2023-05-19T10:44:02.654Z,14.17
2023-05-19T10:45:02.653Z,14.07
2023-05-19T10:46:02.609Z,14.02
2023-05-19T10:47:02.790Z,13.98
2023-05-19T10:48:02.661Z,13.88
2023-05-19T10:49:02.636Z,13.77
2023-05-19T10:50:02.584Z,13.94
2023-05-19T10:51:02.605Z,14.10
2023-05-19T10:52:02.547Z,14.13
2023-05-19T10:53:02.567Z,14.14
2023-05-19T10:54:02.538Z,14.09
2023-05-19T10:55:02.545Z,13.95
2023-05-19T10:56:02.516Z,13.91
2023-05-19T10:57:02.506Z,13.98
2023-05-19T10:58:02.488Z,14.07
2023-05-19T10:59:02.501Z,14.10
2023-05-19T11:00:02.484Z,14.10
2023-05-19T11:01:02.457Z,14.16
2023-05-19T11:02:02.504Z,14.27
2023-05-19T11:03:02.527Z,14.35
2023-05-19T11:04:02.484Z,14.42
2023-05-19T11:05:02.437Z,14.44
2023-05-19T11:06:02.409Z,14.37
2023-05-19T11:07:02.404Z,14.42
2023-05-19T11:08:02.560Z,14.46
2023-05-19T11:09:02.396Z,14.50
2023-05-19T11:10:02.408Z,14.54
2023-05-19T11:11:02.368Z,14.54
2023-05-19T11:12:02.368Z,14.54
2023-05-19T11:13:02.401Z,14.56
2023-05-19T11:14:02.330Z,14.61
2023-05-19T11:15:02.344Z,14.60
2023-05-19T11:16:02.320Z,14.60
2023-05-19T11:17:02.616Z,14.64
2023-05-19T11:18:02.323Z,14.74
2023-05-19T11:19:02.334Z,14.80
2023-05-19T11:20:02.294Z,14.72
2023-05-19T11:21:02.470Z,14.69
2023-05-19T11:22:02.264Z,14.74
2023-05-19T11:23:02.280Z,14.78
2023-05-19T11:24:02.394Z,14.61
2023-05-19T11:25:02.264Z,14.52
2023-05-19T11:26:02.206Z,14.53
2023-05-19T11:27:02.215Z,14.49
2023-05-19T11:28:02.198Z,14.39
2023-05-19T11:29:02.219Z,14.39
2023-05-19T11:30:02.327Z,14.42
2023-05-19T11:31:02.164Z,14.44
2023-05-19T11:32:02.184Z,14.42
2023-05-19T11:33:02.213Z,14.39
2023-05-19T11:34:02.110Z,14.39
2023-05-19T11:35:02.132Z,14.35
2023-05-19T11:36:02.142Z,14.29
2023-05-19T11:37:02.083Z,14.35
2023-05-19T11:38:02.097Z,14.29
2023-05-19T11:39:02.089Z,14.21
2023-05-19T11:40:02.102Z,14.17
2023-05-19T11:41:02.072Z,14.20
2023-05-19T11:42:02.045Z,14.20
2023-05-19T11:43:02.069Z,14.35
2023-05-19T11:44:02.037Z,14.43
2023-05-19T11:45:02.034Z,14.52
2023-05-19T11:46:02.032Z,14.49
2023-05-19T11:47:02.028Z,14.53
2023-05-19T11:48:03.260Z,14.54
2023-05-19T11:49:01.981Z,14.62
2023-05-19T11:50:01.990Z,14.67
2023-05-19T11:51:01.951Z,14.61
2023-05-19T11:52:01.947Z,14.64
2023-05-19T11:53:02.091Z,14.64
2023-05-19T11:54:01.940Z,14.65
2023-05-19T11:55:01.953Z,14.56
2023-05-19T11:56:01.884Z,14.56
2023-05-19T11:57:01.894Z,14.61
2023-05-19T11:58:04.454Z,14.56
2023-05-19T11:59:01.869Z,14.29
2023-05-19T12:00:01.877Z,14.12
2023-05-19T12:01:01.836Z,14.01
2023-05-19T12:02:01.845Z,13.95
2023-05-19T12:03:01.864Z,13.96
2023-05-19T12:04:01.849Z,13.99
2023-05-19T12:05:01.847Z,13.94
2023-05-19T12:06:01.798Z,13.91
2023-05-19T12:07:01.781Z,13.84
2023-05-19T12:08:01.775Z,13.81
2023-05-19T12:09:01.804Z,13.80
2023-05-19T12:10:01.750Z,13.84
2023-05-19T12:11:01.744Z,13.96
2023-05-19T12:12:01.758Z,14.07
2023-05-19T12:13:01.720Z,14.13
2023-05-19T12:14:01.757Z,14.16
2023-05-19T12:15:01.739Z,14.13
2023-05-19T12:16:01.756Z,14.20
2023-05-19T12:17:01.689Z,14.27
2023-05-19T12:18:01.755Z,14.28
2023-05-19T12:19:01.772Z,14.28
2023-05-19T12:20:01.670Z,14.34
2023-05-19T12:21:01.647Z,14.42
2023-05-19T12:22:03.483Z,14.39
2023-05-19T12:23:01.626Z,14.42
2023-05-19T12:24:01.596Z,14.38
2023-05-19T12:25:01.682Z,14.31
2023-05-19T12:26:01.606Z,14.19
2023-05-19T12:27:01.657Z,14.10
2023-05-19T12:28:01.564Z,14.01
2023-05-19T12:29:01.542Z,13.99
2023-05-19T12:30:01.580Z,14.02
2023-05-19T12:31:01.569Z,14.04
2023-05-19T12:32:01.605Z,14.01
2023-05-19T12:33:01.652Z,13.99
2023-05-19T12:34:01.508Z,13.98
2023-05-19T12:35:01.494Z,13.94
2023-05-19T12:36:01.566Z,13.92
2023-05-19T12:37:01.630Z,13.79
2023-05-19T12:38:01.518Z,13.76
2023-05-19T12:39:01.520Z,13.76
2023-05-19T12:40:01.545Z,13.76
2023-05-19T12:41:01.450Z,13.74
2023-05-19T12:42:01.455Z,13.76
2023-05-19T12:43:01.472Z,13.71
2023-05-19T12:44:01.403Z,13.76
2023-05-19T12:45:03.162Z,13.83
2023-05-19T12:46:01.428Z,13.80
2023-05-19T12:47:01.362Z,13.74
2023-05-19T12:48:01.520Z,13.76
2023-05-19T12:49:01.362Z,13.70
2023-05-19T12:50:01.407Z,13.63
2023-05-19T12:51:01.397Z,13.61
2023-05-19T12:52:03.524Z,13.65